Time;durP1;ratioP1;P1;durP2;ratioP2;P2;SDS_P1;SDS_P2;PMS_P1;PMS_P2;Temp;Humidity;BMP_temperature;BMP_pressure;BME280_temperature;BME280_humidity;BME280_pressure;Samples;Min_cycle;Max_cycle;Signal;HPM_P1;HPM_P2
2022/08/30 00:01:08;;;;;;;9.00;7.40;;;;;;;;;;5053161;28;20453;-72
2022/08/30 00:03:41;;;;;;;10.73;8.77;;;;;;;;;;5054135;28;20415;-72
2022/08/30 00:06:08;;;;;;;12.90;9.60;;;;;;;;;;5071158;28;20432;-71
2022/08/30 00:08:35;;;;;;;9.80;8.90;;;;;;;;;;5053077;28;20952;-72
2022/08/30 00:11:04;;;;;;;10.00;8.97;;;;;;;;;;5053261;28;20444;-72
2022/08/30 00:13:30;;;;;;;9.40;8.07;;;;;;;;;;5052934;28;20470;-72
2022/08/30 00:15:57;;;;;;;11.07;8.50;;;;;;;;;;5037044;28;20440;-72
2022/08/30 00:18:24;;;;;;;11.47;9.03;;;;;;;;;;5052920;28;20472;-71
2022/08/30 00:20:51;;;;;;;9.53;7.83;;;;;;;;;;5036531;28;20506;-71
2022/08/30 00:23:18;;;;;;;10.30;8.87;;;;;;;;;;5036751;28;20844;-72
2022/08/30 00:25:44;;;;;;;11.20;8.43;;;;;;;;;;5053947;28;20650;-72
2022/08/30 00:28:12;;;;;;;10.80;8.47;;;;;;;;;;5055162;28;20529;-72
2022/08/30 00:30:38;;;;;;;7.07;6.37;;;;;;;;;;5057137;28;20472;-73
2022/08/30 00:33:05;;;;;;;8.00;5.90;;;;;;;;;;5056046;28;20421;-72
2022/08/30 00:35:32;;;;;;;6.97;6.27;;;;;;;;;;5057431;28;20432;-71
2022/08/30 00:37:59;;;;;;;8.50;5.50;;;;;;;;;;5048335;28;20421;-72
2022/08/30 00:40:26;;;;;;;6.53;5.93;;;;;;;;;;5047259;28;20485;-71
2022/08/30 00:42:54;;;;;;;7.70;4.87;;;;;;;;;;5054622;28;20486;-72
2022/08/30 00:45:30;;;;;;;7.20;6.00;;;;;;;;;;5057434;28;20432;-71
2022/08/30 00:47:57;;;;;;;5.47;4.97;;;;;;;;;;5076785;28;20456;-72
2022/08/30 00:50:27;;;;;;;10.83;5.80;;;;;;;;;;5079255;28;21126;-72
2022/08/30 00:52:57;;;;;;;6.10;5.50;;;;;;;;;;5061043;28;20423;-72
2022/08/30 00:55:23;;;;;;;7.50;6.10;;;;;;;;;;5057131;28;20468;-71
2022/08/30 00:57:52;;;;;;;7.13;5.83;;;;;;;;;;5058967;28;20475;-71
2022/08/30 01:00:19;;;;;;;6.67;5.87;;;;;;;;;;5057743;28;20456;-71
2022/08/30 01:02:48;;;;;;;8.00;4.67;;;;;;;;;;5057599;28;20515;-72
2022/08/30 01:05:19;;;;;;;6.40;5.30;;;;;;;;;;5057706;28;20448;-71
2022/08/30 01:07:45;;;;;;;6.00;4.83;;;;;;;;;;5076577;28;20464;-71
2022/08/30 01:10:12;;;;;;;9.00;5.70;;;;;;;;;;5075214;28;20480;-71
2022/08/30 01:12:40;;;;;;;6.27;5.20;;;;;;;;;;5059074;28;20433;-71
2022/08/30 01:15:07;;;;;;;9.10;5.60;;;;;;;;;;5078107;28;20447;-72
2022/08/30 01:17:35;;;;;;;5.40;4.90;;;;;;;;;;5058968;28;20816;-72
2022/08/30 01:20:05;;;;;;;8.50;4.63;;;;;;;;;;5043393;28;20456;-71
2022/08/30 01:22:38;;;;;;;8.13;5.10;;;;;;;;;;5059667;28;20436;-71
2022/08/30 01:25:07;;;;;;;6.00;5.37;;;;;;;;;;5057888;28;20801;-71
2022/08/30 01:27:36;;;;;;;8.33;5.50;;;;;;;;;;5038527;28;20468;-72
2022/08/30 01:30:03;;;;;;;5.77;5.13;;;;;;;;;;5060006;28;20544;-71
2022/08/30 01:32:30;;;;;;;8.30;6.03;;;;;;;;;;5060624;28;20518;-72
2022/08/30 01:34:57;;;;;;;8.00;5.60;;;;;;;;;;5060597;28;20512;-72
2022/08/30 01:37:28;;;;;;;12.27;5.37;;;;;;;;;;5043818;28;20478;-72
2022/08/30 01:39:56;;;;;;;6.77;5.60;;;;;;;;;;5061521;28;20499;-72
2022/08/30 01:42:24;;;;;;;6.77;5.70;;;;;;;;;;5057719;28;20433;-71
2022/08/30 01:44:53;;;;;;;7.47;6.23;;;;;;;;;;5074269;28;20420;-71
2022/08/30 01:47:20;;;;;;;8.53;4.80;;;;;;;;;;5043387;28;21221;-71
2022/08/30 01:49:49;;;;;;;8.60;5.63;;;;;;;;;;5059683;28;20483;-72
2022/08/30 01:52:17;;;;;;;5.63;5.03;;;;;;;;;;5041997;28;20887;-72
2022/08/30 01:54:45;;;;;;;9.73;6.37;;;;;;;;;;5048211;28;20456;-72
2022/08/30 01:57:14;;;;;;;15.90;5.90;;;;;;;;;;5073371;28;20432;-72
2022/08/30 01:59:46;;;;;;;7.67;5.70;;;;;;;;;;5059524;28;21068;-72
2022/08/30 02:02:14;;;;;;;10.33;7.00;;;;;;;;;;5059201;28;20951;-72
2022/08/30 02:04:41;;;;;;;8.47;6.60;;;;;;;;;;5075951;28;20493;-71
2022/08/30 02:07:09;;;;;;;10.23;6.37;;;;;;;;;;5075136;28;20487;-71
2022/08/30 02:09:36;;;;;;;8.37;6.50;;;;;;;;;;5059171;28;20456;-71
2022/08/30 02:12:05;;;;;;;6.73;5.23;;;;;;;;;;5061137;28;20432;-71
2022/08/30 02:14:31;;;;;;;11.80;5.33;;;;;;;;;;5059359;28;20455;-71
2022/08/30 02:16:58;;;;;;;6.93;6.33;;;;;;;;;;5078185;28;20474;-71
2022/08/30 02:19:25;;;;;;;7.33;5.10;;;;;;;;;;5075082;28;20531;-71
2022/08/30 02:21:51;;;;;;;6.80;5.03;;;;;;;;;;5057112;28;20467;-71
2022/08/30 02:24:18;;;;;;;8.83;5.67;;;;;;;;;;5077196;28;20432;-71
2022/08/30 02:26:45;;;;;;;6.87;5.00;;;;;;;;;;5060232;28;20425;-71
2022/08/30 02:29:12;;;;;;;6.30;5.33;;;;;;;;;;5044171;28;20476;-71
2022/08/30 02:31:39;;;;;;;7.53;5.40;;;;;;;;;;5056531;28;20482;-72
2022/08/30 02:34:06;;;;;;;9.90;5.13;;;;;;;;;;5043540;28;20512;-71
2022/08/30 02:36:33;;;;;;;7.43;5.80;;;;;;;;;;5039811;28;20978;-71
2022/08/30 02:38:59;;;;;;;9.93;5.17;;;;;;;;;;5055989;28;20495;-72
2022/08/30 02:41:26;;;;;;;5.80;5.10;;;;;;;;;;5056318;28;20441;-71
2022/08/30 02:43:57;;;;;;;6.10;5.10;;;;;;;;;;5040348;28;21082;-71
2022/08/30 02:46:24;;;;;;;6.90;6.17;;;;;;;;;;5055089;28;20420;-72
2022/08/30 02:48:50;;;;;;;8.57;7.60;;;;;;;;;;5073713;28;20494;-72
2022/08/30 02:51:17;;;;;;;12.47;9.13;;;;;;;;;;5057485;28;20409;-71
2022/08/30 02:53:44;;;;;;;10.83;7.80;;;;;;;;;;5057015;28;20425;-72
2022/08/30 02:56:12;;;;;;;11.63;7.17;;;;;;;;;;5042648;28;20434;-71
2022/08/30 02:58:43;;;;;;;11.03;7.87;;;;;;;;;;5042854;28;20790;-72
2022/08/30 03:01:12;;;;;;;8.10;7.30;;;;;;;;;;5041332;28;20560;-71
2022/08/30 03:03:39;;;;;;;7.90;7.10;;;;;;;;;;5055497;28;20437;-71
2022/08/30 03:06:09;;;;;;;7.57;5.87;;;;;;;;;;5074990;28;20512;-71
2022/08/30 03:08:36;;;;;;;9.10;7.37;;;;;;;;;;5036893;28;20558;-71
2022/08/30 03:11:03;;;;;;;12.30;6.80;;;;;;;;;;5037767;28;21349;-71
2022/08/30 03:13:29;;;;;;;7.03;6.17;;;;;;;;;;5054488;28;20421;-71
2022/08/30 03:15:56;;;;;;;7.53;6.20;;;;;;;;;;5056229;28;20457;-71
2022/08/30 03:18:22;;;;;;;5.73;5.23;;;;;;;;;;5054823;28;20859;-71
2022/08/30 03:20:49;;;;;;;15.37;6.00;;;;;;;;;;5072755;28;20528;-72
2022/08/30 03:23:21;;;;;;;5.00;4.10;;;;;;;;;;5072788;28;20786;-71
2022/08/30 03:25:48;;;;;;;6.63;4.83;;;;;;;;;;5076497;28;20428;-72
2022/08/30 03:28:16;;;;;;;5.17;4.67;;;;;;;;;;5058426;28;20452;-72
2022/08/30 03:30:42;;;;;;;5.77;5.27;;;;;;;;;;5058437;28;20820;-71
2022/08/30 03:33:09;;;;;;;5.47;4.00;;;;;;;;;;5056086;28;20464;-71
2022/08/30 03:35:37;;;;;;;5.70;4.30;;;;;;;;;;5057293;28;20417;-72
2022/08/30 03:38:04;;;;;;;5.50;4.97;;;;;;;;;;5074441;28;20482;-71
2022/08/30 03:40:32;;;;;;;6.93;4.70;;;;;;;;;;5056920;28;21089;-72
2022/08/30 03:42:59;;;;;;;5.07;4.10;;;;;;;;;;5053801;28;20490;-71
2022/08/30 03:45:26;;;;;;;12.93;5.07;;;;;;;;;;5056474;28;20475;-71
2022/08/30 03:47:53;;;;;;;17.40;5.73;;;;;;;;;;5059015;28;20456;-71
2022/08/30 03:50:19;;;;;;;5.47;4.70;;;;;;;;;;5057196;28;20481;-71
2022/08/30 03:52:46;;;;;;;5.73;5.00;;;;;;;;;;5075531;28;20511;-71
2022/08/30 03:55:13;;;;;;;11.73;4.80;;;;;;;;;;5055093;28;20908;-72
2022/08/30 03:57:41;;;;;;;6.63;4.87;;;;;;;;;;5038421;28;20424;-71
2022/08/30 04:00:09;;;;;;;5.07;4.10;;;;;;;;;;5039753;28;20491;-72
2022/08/30 04:02:39;;;;;;;4.57;4.13;;;;;;;;;;5058802;28;20432;-71
2022/08/30 04:05:07;;;;;;;4.63;4.17;;;;;;;;;;5074217;28;20424;-71
2022/08/30 04:07:33;;;;;;;5.57;5.07;;;;;;;;;;5076907;28;20966;-72
2022/08/30 04:10:00;;;;;;;4.70;4.27;;;;;;;;;;5057674;28;20505;-71
2022/08/30 04:12:27;;;;;;;8.73;4.77;;;;;;;;;;5059586;28;20417;-71
2022/08/30 04:14:55;;;;;;;8.93;5.10;;;;;;;;;;5039116;28;20437;-70
2022/08/30 04:17:22;;;;;;;7.53;4.87;;;;;;;;;;5057177;28;20429;-71
2022/08/30 04:19:50;;;;;;;8.83;4.40;;;;;;;;;;5057023;28;20463;-71
2022/08/30 04:22:17;;;;;;;6.93;4.93;;;;;;;;;;5054903;28;20424;-71
2022/08/30 04:24:43;;;;;;;7.90;4.60;;;;;;;;;;5054815;28;20464;-70
2022/08/30 04:27:10;;;;;;;5.20;4.80;;;;;;;;;;5039944;28;20512;-71
2022/08/30 04:29:37;;;;;;;7.50;5.13;;;;;;;;;;5053242;28;20464;-71
2022/08/30 04:32:03;;;;;;;4.67;4.23;;;;;;;;;;5053323;28;20441;-71
2022/08/30 04:34:30;;;;;;;5.70;4.93;;;;;;;;;;5053357;28;20425;-71
2022/08/30 04:36:57;;;;;;;4.60;3.90;;;;;;;;;;5071122;28;20428;-71
2022/08/30 04:39:24;;;;;;;6.10;4.77;;;;;;;;;;5053082;28;20468;-71
2022/08/30 04:41:50;;;;;;;8.53;4.37;;;;;;;;;;5033473;28;20476;-71
2022/08/30 04:44:17;;;;;;;8.87;5.50;;;;;;;;;;5070013;28;20459;-71
2022/08/30 04:46:45;;;;;;;10.60;5.37;;;;;;;;;;5053494;28;20428;-71
2022/08/30 04:49:11;;;;;;;7.80;5.47;;;;;;;;;;5036285;28;21004;-71
2022/08/30 04:51:38;;;;;;;5.20;4.10;;;;;;;;;;5036610;28;20440;-71
2022/08/30 04:54:05;;;;;;;5.37;4.87;;;;;;;;;;5053014;28;20471;-71
2022/08/30 04:56:32;;;;;;;8.43;4.77;;;;;;;;;;5052910;28;20436;-72
2022/08/30 04:58:59;;;;;;;4.53;4.13;;;;;;;;;;5070757;28;20524;-71
2022/08/30 05:01:27;;;;;;;4.97;4.47;;;;;;;;;;5036421;28;20865;-70
2022/08/30 05:03:54;;;;;;;6.77;6.10;;;;;;;;;;5070803;28;20439;-71
2022/08/30 05:06:22;;;;;;;5.33;4.80;;;;;;;;;;5053095;28;20428;-71
2022/08/30 05:08:50;;;;;;;5.40;4.87;;;;;;;;;;5072210;28;20449;-71
2022/08/30 05:11:17;;;;;;;7.33;5.70;;;;;;;;;;5054689;28;20420;-71
2022/08/30 05:13:45;;;;;;;5.63;4.20;;;;;;;;;;5052949;28;20478;-71
2022/08/30 05:16:16;;;;;;;7.20;4.30;;;;;;;;;;5052814;28;20478;-73
2022/08/30 05:18:44;;;;;;;6.90;4.87;;;;;;;;;;5052936;28;20429;-73
2022/08/30 05:21:12;;;;;;;8.13;4.93;;;;;;;;;;5052753;28;20450;-73
2022/08/30 05:23:39;;;;;;;7.73;4.80;;;;;;;;;;5044344;28;20969;-73
2022/08/30 05:26:07;;;;;;;6.50;4.90;;;;;;;;;;5047660;28;20469;-70
2022/08/30 05:28:34;;;;;;;4.87;4.37;;;;;;;;;;5035912;28;20464;-71
2022/08/30 05:31:01;;;;;;;5.77;4.97;;;;;;;;;;5036505;28;20880;-71
2022/08/30 05:33:29;;;;;;;6.50;3.77;;;;;;;;;;5074207;28;20421;-71
2022/08/30 05:35:55;;;;;;;5.80;5.20;;;;;;;;;;5056079;28;20463;-71
2022/08/30 05:38:22;;;;;;;8.73;5.17;;;;;;;;;;5056131;28;20523;-71
2022/08/30 05:40:49;;;;;;;8.37;6.60;;;;;;;;;;5055975;28;20459;-71
2022/08/30 05:43:15;;;;;;;6.27;5.60;;;;;;;;;;5074289;28;20479;-70
2022/08/30 05:45:42;;;;;;;8.13;6.10;;;;;;;;;;5056253;28;20467;-71
2022/08/30 05:48:08;;;;;;;6.07;5.47;;;;;;;;;;5056318;28;20466;-71
2022/08/30 05:50:38;;;;;;;6.70;4.93;;;;;;;;;;5039711;28;20995;-71
2022/08/30 05:53:05;;;;;;;13.27;6.70;;;;;;;;;;5055950;28;20821;-71
2022/08/30 05:55:32;;;;;;;7.23;5.50;;;;;;;;;;5055869;28;20440;-71
2022/08/30 05:57:59;;;;;;;5.77;5.27;;;;;;;;;;5073895;28;20963;-71
2022/08/30 06:00:29;;;;;;;8.90;5.87;;;;;;;;;;5039243;28;20464;-71
2022/08/30 06:02:55;;;;;;;6.17;5.57;;;;;;;;;;5055961;28;20499;-71
2022/08/30 06:05:22;;;;;;;5.83;4.83;;;;;;;;;;5055844;28;20421;-71
2022/08/30 06:07:48;;;;;;;5.63;5.00;;;;;;;;;;5055570;28;20472;-71
2022/08/30 06:10:15;;;;;;;12.07;6.00;;;;;;;;;;5055764;28;20441;-71
2022/08/30 06:12:42;;;;;;;6.70;5.90;;;;;;;;;;5055535;28;20451;-71
2022/08/30 06:15:09;;;;;;;15.23;5.73;;;;;;;;;;5038958;28;20495;-71
2022/08/30 06:17:38;;;;;;;7.20;5.83;;;;;;;;;;5055545;28;20896;-71
2022/08/30 06:20:05;;;;;;;7.07;6.37;;;;;;;;;;5055621;28;20498;-71
2022/08/30 06:22:31;;;;;;;7.10;5.37;;;;;;;;;;5073378;28;20691;-71
2022/08/30 06:24:58;;;;;;;12.03;6.90;;;;;;;;;;5073409;28;20474;-71
2022/08/30 06:27:24;;;;;;;8.20;6.30;;;;;;;;;;5073254;28;20912;-72
2022/08/30 06:29:51;;;;;;;6.10;5.50;;;;;;;;;;5055208;28;20500;-72
2022/08/30 06:32:18;;;;;;;10.70;5.90;;;;;;;;;;5038832;28;20464;-72
2022/08/30 06:34:44;;;;;;;9.10;5.97;;;;;;;;;;5055439;28;20461;-72
2022/08/30 06:37:11;;;;;;;6.27;5.67;;;;;;;;;;5054856;28;20857;-71
2022/08/30 06:39:56;;;;;;;8.90;5.30;;;;;;;;;;5055065;28;21044;-71
2022/08/30 06:42:23;;;;;;;8.93;5.93;;;;;;;;;;5038549;28;20468;-71
2022/08/30 06:44:49;;;;;;;6.63;5.90;;;;;;;;;;5054979;28;20471;-71
2022/08/30 06:47:17;;;;;;;8.37;6.77;;;;;;;;;;5054864;28;20432;-71
2022/08/30 06:49:43;;;;;;;8.17;6.90;;;;;;;;;;5054841;28;20476;-72
2022/08/30 06:52:10;;;;;;;12.53;6.47;;;;;;;;;;5055068;28;20443;-71
2022/08/30 06:54:37;;;;;;;10.90;6.80;;;;;;;;;;5054870;28;20455;-71
2022/08/30 06:57:04;;;;;;;6.03;5.43;;;;;;;;;;5054643;28;20459;-71
2022/08/30 06:59:31;;;;;;;5.53;4.87;;;;;;;;;;5054479;28;20988;-71
2022/08/30 07:01:58;;;;;;;6.77;5.70;;;;;;;;;;5054525;28;20928;-71
2022/08/30 07:04:24;;;;;;;7.43;4.70;;;;;;;;;;5054586;28;20539;-72
2022/08/30 07:06:51;;;;;;;5.67;5.07;;;;;;;;;;5037981;28;20532;-72
2022/08/30 07:09:18;;;;;;;5.17;4.60;;;;;;;;;;5054445;28;20508;-73
2022/08/30 07:11:48;;;;;;;6.03;4.90;;;;;;;;;;5038426;28;20436;-73
2022/08/30 07:14:14;;;;;;;6.73;5.30;;;;;;;;;;5054751;28;20447;-73
2022/08/30 07:16:42;;;;;;;5.77;4.30;;;;;;;;;;5054675;28;20467;-72
2022/08/30 07:19:08;;;;;;;6.07;4.30;;;;;;;;;;5042872;28;20872;-72
2022/08/30 07:21:47;;;;;;;8.13;5.07;;;;;;;;;;5034523;28;20806;-72
2022/08/30 07:24:15;;;;;;;7.80;4.97;;;;;;;;;;5065678;28;20488;-72
2022/08/30 07:26:45;;;;;;;8.40;5.90;;;;;;;;;;5054443;28;20770;-71
2022/08/30 07:29:12;;;;;;;6.33;4.50;;;;;;;;;;5054069;28;20499;-71
2022/08/30 07:31:38;;;;;;;7.23;5.70;;;;;;;;;;5037600;28;20479;-72
2022/08/30 07:34:06;;;;;;;4.80;4.40;;;;;;;;;;5054221;28;20486;-71
2022/08/30 07:36:33;;;;;;;9.20;6.00;;;;;;;;;;5037554;28;20982;-71
2022/08/30 07:39:00;;;;;;;7.63;5.10;;;;;;;;;;5053791;28;20441;-71
2022/08/30 07:41:28;;;;;;;7.70;4.93;;;;;;;;;;5053804;28;20433;-71
2022/08/30 07:43:54;;;;;;;4.77;4.27;;;;;;;;;;5071505;28;20841;-71
2022/08/30 07:46:21;;;;;;;8.07;5.77;;;;;;;;;;5071900;28;20928;-71
2022/08/30 07:48:48;;;;;;;8.40;5.73;;;;;;;;;;5053904;28;20460;-71
2022/08/30 07:51:17;;;;;;;5.60;5.00;;;;;;;;;;5071758;28;20476;-72
2022/08/30 07:53:44;;;;;;;8.23;5.10;;;;;;;;;;5036865;28;20521;-71
2022/08/30 07:56:11;;;;;;;6.83;5.40;;;;;;;;;;5037071;28;20428;-71
2022/08/30 07:58:38;;;;;;;5.20;4.40;;;;;;;;;;5053596;28;20913;-71
2022/08/30 08:01:06;;;;;;;7.13;4.60;;;;;;;;;;5053648;28;20540;-72
2022/08/30 08:03:33;;;;;;;5.50;5.00;;;;;;;;;;5053691;28;20448;-72
2022/08/30 08:06:02;;;;;;;8.07;5.30;;;;;;;;;;5037095;28;20490;-72
2022/08/30 08:08:28;;;;;;;5.60;4.70;;;;;;;;;;5053466;28;20995;-72
2022/08/30 08:10:55;;;;;;;9.60;5.10;;;;;;;;;;5037039;28;20988;-72
2022/08/30 08:13:22;;;;;;;7.47;5.93;;;;;;;;;;5053479;28;20940;-72
2022/08/30 08:15:53;;;;;;;8.03;6.07;;;;;;;;;;5071808;28;20874;-72
2022/08/30 08:18:20;;;;;;;6.13;5.30;;;;;;;;;;5055345;28;20843;-72
2022/08/30 08:20:47;;;;;;;8.50;5.10;;;;;;;;;;5073102;28;20553;-72
2022/08/30 08:23:14;;;;;;;6.37;5.37;;;;;;;;;;5053226;28;20432;-72
2022/08/30 08:25:41;;;;;;;5.93;5.40;;;;;;;;;;5036840;28;20460;-72
2022/08/30 08:28:08;;;;;;;5.97;5.47;;;;;;;;;;5053278;28;20960;-72
2022/08/30 08:30:36;;;;;;;5.90;5.30;;;;;;;;;;5036749;28;20838;-72
2022/08/30 08:33:03;;;;;;;9.90;6.40;;;;;;;;;;5071273;28;20425;-72
2022/08/30 08:35:30;;;;;;;7.10;5.87;;;;;;;;;;5036872;28;21153;-72
2022/08/30 08:37:57;;;;;;;7.30;6.33;;;;;;;;;;5053243;28;20470;-72
2022/08/30 08:40:24;;;;;;;8.97;7.47;;;;;;;;;;5023582;28;20560;-72
2022/08/30 08:42:51;;;;;;;7.17;6.20;;;;;;;;;;5053132;28;20820;-72
2022/08/30 08:45:41;;;;;;;8.00;6.60;;;;;;;;;;5053079;28;20436;-73
2022/08/30 08:48:17;;;;;;;7.40;6.43;;;;;;;;;;5047909;28;20436;-73
2022/08/30 08:53:33;;;;;;;8.30;7.17;;;;;;;;;;5052831;28;20564;-73
2022/08/30 08:53:36;;;;;;;6.63;5.93;;;;;;;;;;5071161;28;20420;-72
2022/08/30 08:56:15;;;;;;;9.07;6.50;;;;;;;;;;5053051;28;20443;-72
2022/08/30 08:58:46;;;;;;;7.83;6.07;;;;;;;;;;5052982;28;20459;-72
2022/08/30 09:01:15;;;;;;;7.10;6.50;;;;;;;;;;5053451;28;20824;-72
2022/08/30 09:03:42;;;;;;;7.37;6.43;;;;;;;;;;5053615;28;20433;-72
2022/08/30 09:06:19;;;;;;;6.97;6.17;;;;;;;;;;5053748;28;20428;-72
2022/08/30 09:08:46;;;;;;;7.70;7.00;;;;;;;;;;5056984;28;20459;-73
2022/08/30 09:11:17;;;;;;;7.37;6.70;;;;;;;;;;5056853;28;20725;-73
2022/08/30 09:13:53;;;;;;;6.40;5.80;;;;;;;;;;5041530;28;20518;-73
2022/08/30 09:16:38;;;;;;;7.70;6.23;;;;;;;;;;5056529;28;20467;-73
2022/08/30 09:19:05;;;;;;;8.40;6.20;;;;;;;;;;5040371;28;20928;-74
2022/08/30 09:21:33;;;;;;;6.67;6.07;;;;;;;;;;5056609;28;21014;-74
2022/08/30 09:24:03;;;;;;;7.93;7.23;;;;;;;;;;5056790;28;20424;-74
2022/08/30 09:26:32;;;;;;;9.53;6.60;;;;;;;;;;5040249;28;20439;-73
2022/08/30 09:28:59;;;;;;;7.83;7.07;;;;;;;;;;5039854;28;20461;-74
2022/08/30 09:31:30;;;;;;;9.10;6.83;;;;;;;;;;5056667;28;20416;-73
2022/08/30 09:34:04;;;;;;;6.70;6.10;;;;;;;;;;5056203;28;20846;-74
2022/08/30 09:36:33;;;;;;;6.90;5.90;;;;;;;;;;5056378;28;20436;-73
2022/08/30 09:39:02;;;;;;;8.43;6.70;;;;;;;;;;5056194;28;21158;-74
2022/08/30 09:41:35;;;;;;;7.10;6.40;;;;;;;;;;5056317;28;20420;-74
2022/08/30 09:44:06;;;;;;;6.93;6.10;;;;;;;;;;5074203;28;20448;-73
2022/08/30 09:46:33;;;;;;;8.63;6.83;;;;;;;;;;5039916;28;20650;-74
2022/08/30 09:49:00;;;;;;;11.03;7.73;;;;;;;;;;5022262;28;20537;-74
2022/08/30 09:51:46;;;;;;;8.40;6.80;;;;;;;;;;5030229;28;20471;-73
2022/08/30 09:54:30;;;;;;;7.43;6.73;;;;;;;;;;5073955;28;20428;-74
2022/08/30 09:57:16;;;;;;;10.00;7.93;;;;;;;;;;5073793;28;20494;-74
2022/08/30 09:59:49;;;;;;;7.10;6.37;;;;;;;;;;5055953;28;21256;-74
2022/08/30 10:02:34;;;;;;;6.63;6.13;;;;;;;;;;5056484;28;20498;-74
2022/08/30 10:05:16;;;;;;;8.10;5.80;;;;;;;;;;5056421;28;20531;-74
2022/08/30 10:07:54;;;;;;;7.13;6.30;;;;;;;;;;5056087;28;20455;-74
2022/08/30 10:10:29;;;;;;;6.67;6.07;;;;;;;;;;5055857;28;20885;-73
2022/08/30 10:13:21;;;;;;;6.07;5.50;;;;;;;;;;5039347;28;20432;-73
2022/08/30 10:15:56;;;;;;;7.73;7.00;;;;;;;;;;5055786;28;20440;-73
2022/08/30 10:18:24;;;;;;;7.50;6.90;;;;;;;;;;5055061;28;20705;-73
2022/08/30 10:20:53;;;;;;;7.10;6.10;;;;;;;;;;5038898;28;20452;-74
2022/08/30 10:23:23;;;;;;;7.43;6.10;;;;;;;;;;5073426;28;20482;-75
2022/08/30 10:26:12;;;;;;;9.63;6.90;;;;;;;;;;5073489;28;20511;-74
2022/08/30 10:28:46;;;;;;;6.27;5.70;;;;;;;;;;5038789;28;20485;-74
2022/08/30 10:31:27;;;;;;;7.00;6.30;;;;;;;;;;5055221;28;20563;-74
2022/08/30 10:33:57;;;;;;;7.93;6.00;;;;;;;;;;5055358;28;20428;-74
2022/08/30 10:36:29;;;;;;;6.90;5.73;;;;;;;;;;5073296;28;20435;-74
2022/08/30 10:38:57;;;;;;;6.93;5.33;;;;;;;;;;5052483;28;20460;-73
2022/08/30 10:41:39;;;;;;;5.80;4.90;;;;;;;;;;5055313;28;20520;-74
2022/08/30 10:44:12;;;;;;;7.23;5.67;;;;;;;;;;5055127;28;20479;-74
2022/08/30 10:46:51;;;;;;;5.47;4.83;;;;;;;;;;5055084;28;20525;-73
2022/08/30 10:49:20;;;;;;;5.90;4.83;;;;;;;;;;5055563;28;20547;-74
2022/08/30 10:51:51;;;;;;;6.03;4.93;;;;;;;;;;5055401;28;20528;-74
2022/08/30 10:54:22;;;;;;;5.77;5.20;;;;;;;;;;5055114;28;20440;-74
2022/08/30 10:56:52;;;;;;;6.17;4.73;;;;;;;;;;5055419;28;20416;-74
2022/08/30 10:59:19;;;;;;;5.60;5.10;;;;;;;;;;5055426;28;21012;-74
2022/08/30 11:01:52;;;;;;;7.00;4.20;;;;;;;;;;5055508;28;20428;-74
2022/08/30 11:04:44;;;;;;;4.67;4.20;;;;;;;;;;5038411;28;20475;-74
2022/08/30 11:07:20;;;;;;;5.80;4.17;;;;;;;;;;5054903;28;20435;-75
2022/08/30 11:10:19;;;;;;;6.20;5.37;;;;;;;;;;5054600;28;20517;-74
2022/08/30 11:12:58;;;;;;;8.00;4.73;;;;;;;;;;5018661;28;20442;-74
2022/08/30 11:15:30;;;;;;;5.20;4.70;;;;;;;;;;5059934;28;20519;-75
2022/08/30 11:17:56;;;;;;;8.13;4.97;;;;;;;;;;5038214;28;20458;-73
2022/08/30 11:20:29;;;;;;;5.27;4.50;;;;;;;;;;5037816;28;20478;-73
2022/08/30 11:23:05;;;;;;;8.17;4.97;;;;;;;;;;5037859;28;20464;-74
2022/08/30 11:25:50;;;;;;;5.57;4.30;;;;;;;;;;5055016;28;20516;-74
2022/08/30 11:28:35;;;;;;;5.80;5.00;;;;;;;;;;5041905;28;20786;-74
2022/08/30 11:31:22;;;;;;;6.43;4.90;;;;;;;;;;5054090;28;20880;-74
2022/08/30 11:33:58;;;;;;;5.70;4.50;;;;;;;;;;5037604;28;21001;-74
2022/08/30 11:36:30;;;;;;;5.70;4.67;;;;;;;;;;5053269;28;20459;-73
2022/08/30 11:39:11;;;;;;;7.93;5.60;;;;;;;;;;5056742;28;20432;-74
2022/08/30 11:41:44;;;;;;;5.70;5.10;;;;;;;;;;5084812;28;20459;-74
2022/08/30 11:44:19;;;;;;;5.30;4.20;;;;;;;;;;5055967;28;20526;-74
2022/08/30 11:46:48;;;;;;;4.30;3.90;;;;;;;;;;5034089;28;20437;-74
2022/08/30 11:49:17;;;;;;;4.90;4.40;;;;;;;;;;5033538;28;21000;-74
2022/08/30 11:51:53;;;;;;;4.67;4.23;;;;;;;;;;5030822;28;20535;-74
2022/08/30 11:54:58;;;;;;;4.70;3.50;;;;;;;;;;5040135;28;20468;-74
2022/08/30 11:57:44;;;;;;;4.73;4.23;;;;;;;;;;5071706;28;20482;-73
2022/08/30 12:00:24;;;;;;;5.00;4.47;;;;;;;;;;5054011;28;20449;-73
2022/08/30 12:02:55;;;;;;;8.07;4.00;;;;;;;;;;5037678;28;20439;-74
2022/08/30 12:05:37;;;;;;;6.20;4.17;;;;;;;;;;5053466;28;20455;-73
2022/08/30 12:08:07;;;;;;;4.60;4.10;;;;;;;;;;5053379;28;20854;-73
2022/08/30 12:10:42;;;;;;;4.60;4.20;;;;;;;;;;5033429;28;20544;-73
2022/08/30 12:13:09;;;;;;;6.40;4.30;;;;;;;;;;5019528;28;20437;-74
2022/08/30 12:15:56;;;;;;;5.20;4.77;;;;;;;;;;5053361;28;20430;-74
2022/08/30 12:18:27;;;;;;;3.90;3.53;;;;;;;;;;5053328;28;20478;-73
2022/08/30 12:21:04;;;;;;;6.50;5.57;;;;;;;;;;5036843;28;20480;-75
2022/08/30 12:23:51;;;;;;;4.70;4.30;;;;;;;;;;5054041;28;20530;-74
2022/08/30 12:26:24;;;;;;;5.43;3.70;;;;;;;;;;5053423;28;20443;-74
2022/08/30 12:29:03;;;;;;;4.80;4.40;;;;;;;;;;5053744;28;20417;-74
2022/08/30 12:31:30;;;;;;;5.63;4.93;;;;;;;;;;5023984;28;21042;-74
2022/08/30 12:34:01;;;;;;;4.60;4.10;;;;;;;;;;5053464;28;20461;-74
2022/08/30 12:36:46;;;;;;;6.30;4.37;;;;;;;;;;5071681;28;20847;-74
2022/08/30 12:39:18;;;;;;;6.13;4.30;;;;;;;;;;5071143;28;20498;-74
2022/08/30 12:41:45;;;;;;;5.53;5.03;;;;;;;;;;5040009;28;20500;-74
2022/08/30 12:44:14;;;;;;;5.17;4.07;;;;;;;;;;5057519;28;20428;-74
2022/08/30 12:46:42;;;;;;;9.80;4.47;;;;;;;;;;5057746;28;20443;-75
2022/08/30 12:49:08;;;;;;;5.37;4.40;;;;;;;;;;5040489;28;20501;-75
2022/08/30 12:51:40;;;;;;;9.13;4.27;;;;;;;;;;5057570;28;20444;-75
2022/08/30 12:54:16;;;;;;;7.50;4.60;;;;;;;;;;5057260;28;20432;-75
2022/08/30 12:56:46;;;;;;;4.30;3.90;;;;;;;;;;5040930;28;20977;-74
2022/08/30 12:59:35;;;;;;;5.20;4.27;;;;;;;;;;5056978;28;20467;-74
2022/08/30 13:02:21;;;;;;;5.23;4.60;;;;;;;;;;5057208;28;20432;-75
2022/08/30 13:04:49;;;;;;;5.33;4.53;;;;;;;;;;5056809;28;20531;-73
2022/08/30 13:07:27;;;;;;;8.03;3.77;;;;;;;;;;5057230;28;20432;-73
2022/08/30 13:10:05;;;;;;;3.87;3.57;;;;;;;;;;5039963;28;20464;-74
2022/08/30 13:12:34;;;;;;;5.07;4.30;;;;;;;;;;5056539;28;20471;-74
2022/08/30 13:15:18;;;;;;;5.10;4.60;;;;;;;;;;5040393;28;20519;-75
2022/08/30 13:17:45;;;;;;;6.30;5.33;;;;;;;;;;5056801;28;20451;-73
2022/08/30 13:20:15;;;;;;;5.83;4.27;;;;;;;;;;5043465;28;20841;-75
2022/08/30 13:22:59;;;;;;;4.63;4.23;;;;;;;;;;5056840;28;20459;-75
2022/08/30 13:25:26;;;;;;;5.73;3.80;;;;;;;;;;5074299;28;20420;-75
2022/08/30 13:27:52;;;;;;;4.80;4.23;;;;;;;;;;5074455;28;20460;-74
2022/08/30 13:30:19;;;;;;;4.53;3.73;;;;;;;;;;5074212;28;20540;-75
2022/08/30 13:32:45;;;;;;;5.43;4.03;;;;;;;;;;5056232;28;20515;-75
2022/08/30 13:35:12;;;;;;;7.37;3.87;;;;;;;;;;5056228;28;20844;-75
2022/08/30 13:37:40;;;;;;;4.97;4.47;;;;;;;;;;5041394;28;20420;-73
2022/08/30 13:40:16;;;;;;;5.97;3.87;;;;;;;;;;5056184;28;20543;-75
2022/08/30 13:42:43;;;;;;;4.10;3.80;;;;;;;;;;5056061;28;20554;-75
2022/08/30 13:45:13;;;;;;;4.40;4.00;;;;;;;;;;5056001;28;20475;-75
2022/08/30 13:47:59;;;;;;;5.67;5.17;;;;;;;;;;5042003;28;20806;-75
2022/08/30 13:50:26;;;;;;;4.57;4.17;;;;;;;;;;5039092;28;20503;-76
2022/08/30 13:52:53;;;;;;;4.77;4.30;;;;;;;;;;5073096;28;20429;-74
2022/08/30 13:55:19;;;;;;;5.50;4.20;;;;;;;;;;5055670;28;20516;-75
2022/08/30 13:57:46;;;;;;;4.50;4.10;;;;;;;;;;5039447;28;20436;-75
2022/08/30 14:00:22;;;;;;;7.20;4.73;;;;;;;;;;5073878;28;20444;-75
2022/08/30 14:02:49;;;;;;;4.50;4.10;;;;;;;;;;5039487;28;20960;-75
2022/08/30 14:05:22;;;;;;;4.80;4.40;;;;;;;;;;5039795;28;20424;-74
2022/08/30 14:08:10;;;;;;;6.60;5.00;;;;;;;;;;5073466;28;20940;-73
2022/08/30 14:10:57;;;;;;;6.07;5.47;;;;;;;;;;5055350;28;20471;-73
2022/08/30 14:13:24;;;;;;;6.17;5.07;;;;;;;;;;5073635;28;20455;-73
2022/08/30 14:15:52;;;;;;;4.90;4.40;;;;;;;;;;5055440;28;20436;-75
2022/08/30 14:18:39;;;;;;;5.80;5.20;;;;;;;;;;5074650;28;20946;-74
2022/08/30 14:21:06;;;;;;;8.20;4.90;;;;;;;;;;5055107;28;20525;-75
2022/08/30 14:23:32;;;;;;;4.50;4.00;;;;;;;;;;5056107;28;20460;-73
2022/08/30 14:26:00;;;;;;;4.87;4.37;;;;;;;;;;5043338;28;20472;-72
2022/08/30 14:28:29;;;;;;;6.17;5.20;;;;;;;;;;5074906;28;20831;-74
2022/08/30 14:30:56;;;;;;;6.67;5.30;;;;;;;;;;5055021;28;20491;-73
2022/08/30 14:33:23;;;;;;;7.00;3.93;;;;;;;;;;5055961;28;20436;-74
2022/08/30 14:35:51;;;;;;;7.93;4.80;;;;;;;;;;5055654;28;20814;-74
2022/08/30 14:38:19;;;;;;;5.20;4.57;;;;;;;;;;5038696;28;20420;-74
2022/08/30 14:40:45;;;;;;;5.83;4.40;;;;;;;;;;5054852;28;20472;-74
2022/08/30 14:43:12;;;;;;;5.40;5.00;;;;;;;;;;5073200;28;20435;-74
2022/08/30 14:45:39;;;;;;;6.50;4.17;;;;;;;;;;5054658;28;20440;-74
2022/08/30 14:48:08;;;;;;;4.97;4.57;;;;;;;;;;5072952;28;20421;-74
2022/08/30 14:50:41;;;;;;;4.57;4.27;;;;;;;;;;5054587;28;20500;-74
2022/08/30 14:53:08;;;;;;;4.20;3.80;;;;;;;;;;5038364;28;20958;-74
2022/08/30 14:55:35;;;;;;;6.90;5.17;;;;;;;;;;5055800;28;20535;-74
2022/08/30 14:58:05;;;;;;;6.20;4.43;;;;;;;;;;5055055;28;20463;-74